Time,TemperatureF,DewpointF,PressureIn,WindDirection,WindDirectionDegrees,WindSpeedMPH,WindSpeedGustMPH,Humidity,HourlyPrecipIn,Conditions,Clouds,dailyrainin,SoftwareType,DateUTC
2013-02-08 00:04:00,22.3,21.0,30.07,North,8,7.0,13.0,95,-99.99,,,0.00,1-wire,2013-02-08 06:04:00,
2013-02-08 00:09:00,22.2,20.9,30.08,North,8,7.0,13.0,94,-99.99,,,0.00,1-wire,2013-02-08 06:09:00,
2013-02-08 00:15:00,22.3,20.7,30.08,North,8,6.0,14.0,94,-99.99,,,0.00,1-wire,2013-02-08 06:15:00,
2013-02-08 00:20:00,22.2,20.6,30.08,North,8,8.0,13.0,93,-99.99,,,0.00,1-wire,2013-02-08 06:20:00,
2013-02-08 00:26:00,22.3,20.6,30.08,North,10,6.0,11.0,93,-99.99,,,0.00,1-wire,2013-02-08 06:26:00,
2013-02-08 00:31:00,22.4,20.7,30.08,North,10,3.0,6.0,93,-99.99,,,0.00,1-wire,2013-02-08 06:31:00,
2013-02-08 00:36:00,22.3,20.6,30.09,North,5,5.0,14.0,93,-99.99,,,0.00,1-wire,2013-02-08 06:36:00,
2013-02-08 00:41:00,22.4,20.6,30.09,North,5,6.0,11.0,92,-99.99,,,0.00,1-wire,2013-02-08 06:41:00,
2013-02-08 00:46:00,22.5,20.6,30.10,North,5,2.0,6.0,92,-99.99,,,0.00,1-wire,2013-02-08 06:46:00,
2013-02-08 00:52:00,22.5,20.7,30.10,NNE,14,3.0,6.0,93,-99.99,,,0.00,1-wire,2013-02-08 06:52:00,
2013-02-08 00:57:00,22.5,20.7,30.10,NNE,14,5.0,9.0,93,-99.99,,,0.00,1-wire,2013-02-08 06:57:00,
2013-02-08 01:03:00,22.6,20.7,30.10,NNE,14,7.0,13.0,92,-99.99,,,0.00,1-wire,2013-02-08 07:03:00,
2013-02-08 01:08:00,22.6,20.5,30.10,NNE,13,7.0,16.0,92,-99.99,,,0.00,1-wire,2013-02-08 07:08:00,
2013-02-08 01:13:00,22.4,20.3,30.10,NNE,13,7.0,16.0,91,-99.99,,,0.00,1-wire,2013-02-08 07:13:00,
2013-02-08 01:18:00,22.3,20.1,30.11,NNE,13,5.0,11.0,91,-99.99,,,0.00,1-wire,2013-02-08 07:18:00,
2013-02-08 01:23:00,22.3,20.0,30.11,North,355,5.0,11.0,91,-99.99,,,0.00,1-wire,2013-02-08 07:23:00,
2013-02-08 01:28:00,22.2,19.7,30.12,North,355,6.0,11.0,90,-99.99,,,0.00,1-wire,2013-02-08 07:28:00,
2013-02-08 01:33:00,22.2,19.7,30.12,North,355,5.0,8.0,90,-99.99,,,0.00,1-wire,2013-02-08 07:33:00,
2013-02-08 01:38:00,22.2,19.8,30.12,North,1,5.0,8.0,90,-99.99,,,0.00,1-wire,2013-02-08 07:38:00,
2013-02-08 01:43:00,22.2,19.8,30.13,North,1,9.0,16.0,90,-99.99,,,0.00,1-wire,2013-02-08 07:43:00,
2013-02-08 01:48:00,22.2,19.8,30.12,North,1,7.0,11.0,90,-99.99,,,0.00,1-wire,2013-02-08 07:48:00,
2013-02-08 01:53:00,22.3,19.9,30.12,North,2,5.0,9.0,90,-99.99,,,0.00,1-wire,2013-02-08 07:53:00,
2013-02-08 01:58:00,22.5,20.1,30.12,North,2,3.0,6.0,90,-99.99,,,0.00,1-wire,2013-02-08 07:58:00,
2013-02-08 02:03:00,22.4,19.8,30.13,North,2,7.0,11.0,90,-99.99,,,0.00,1-wire,2013-02-08 08:03:00,
2013-02-08 02:08:00,22.5,20.0,30.14,North,0,8.0,16.0,90,-99.99,,,0.00,1-wire,2013-02-08 08:08:00,
2013-02-08 02:13:00,22.7,20.1,30.13,North,0,6.0,12.0,90,-99.99,,,0.00,1-wire,2013-02-08 08:13:00,
2013-02-08 02:18:00,22.9,20.4,30.13,North,0,5.0,10.0,90,-99.99,,,0.00,1-wire,2013-02-08 08:18:00,
2013-02-08 02:23:00,22.8,20.2,30.13,North,5,7.0,12.0,90,-99.99,,,0.00,1-wire,2013-02-08 08:23:00,
2013-02-08 02:28:00,22.9,20.5,30.14,North,5,5.0,8.0,90,-99.99,,,0.00,1-wire,2013-02-08 08:28:00,
2013-02-08 02:33:00,22.8,20.2,30.14,North,5,7.0,12.0,90,-99.99,,,0.00,1-wire,2013-02-08 08:33:00,
2013-02-08 02:38:00,22.9,20.2,30.14,North,1,6.0,11.0,89,-99.99,,,0.00,1-wire,2013-02-08 08:38:00,
2013-02-08 02:44:00,22.9,20.2,30.14,North,1,9.0,14.0,89,-99.99,,,0.00,1-wire,2013-02-08 08:44:00,
2013-02-08 02:49:00,22.9,20.3,30.14,North,1,8.0,17.0,89,-99.99,,,0.00,1-wire,2013-02-08 08:49:00,
2013-02-08 02:55:00,23.1,20.5,30.14,North,2,6.0,14.0,89,-99.99,,,0.00,1-wire,2013-02-08 08:55:00,
2013-02-08 03:00:00,23.1,20.4,30.14,North,2,4.0,8.0,89,-99.99,,,0.00,1-wire,2013-02-08 09:00:00,
2013-02-08 03:05:00,23.0,20.4,30.14,North,2,3.0,8.0,90,-99.99,,,0.00,1-wire,2013-02-08 09:05:00,
2013-02-08 03:11:00,22.9,20.2,30.14,NNE,15,5.0,9.0,89,-99.99,,,0.00,1-wire,2013-02-08 09:11:00,
2013-02-08 03:16:00,23.1,20.5,30.14,NNE,15,6.0,9.0,90,-99.99,,,0.00,1-wire,2013-02-08 09:16:00,
2013-02-08 03:22:00,23.1,20.5,30.14,NNE,13,4.0,9.0,89,-99.99,,,0.00,1-wire,2013-02-08 09:22:00,
2013-02-08 03:28:00,23.0,20.3,30.15,NNE,13,6.0,10.0,89,-99.99,,,0.00,1-wire,2013-02-08 09:28:00,
2013-02-08 03:33:00,23.1,20.4,30.16,NNE,13,5.0,9.0,89,-99.99,,,0.00,1-wire,2013-02-08 09:33:00,
2013-02-08 03:39:00,23.3,20.5,30.16,NNE,16,3.0,6.0,89,-99.99,,,0.00,1-wire,2013-02-08 09:39:00,
2013-02-08 03:44:00,23.2,20.3,30.16,NNE,16,4.0,6.0,88,-99.99,,,0.00,1-wire,2013-02-08 09:44:00,
2013-02-08 03:49:00,23.1,20.0,30.16,NNE,16,5.0,8.0,88,-99.99,,,0.00,1-wire,2013-02-08 09:49:00,
2013-02-08 03:55:00,23.3,20.3,30.16,North,10,4.0,10.0,88,-99.99,,,0.00,1-wire,2013-02-08 09:55:00,
2013-02-08 04:00:00,23.2,20.2,30.16,North,10,5.0,10.0,88,-99.99,,,0.00,1-wire,2013-02-08 10:00:00,
2013-02-08 04:06:00,23.1,20.2,30.16,NNE,13,6.0,13.0,89,-99.99,,,0.00,1-wire,2013-02-08 10:06:00,
2013-02-08 04:11:00,23.1,20.2,30.16,NNE,13,4.0,10.0,89,-99.99,,,0.00,1-wire,2013-02-08 10:11:00,
2013-02-08 04:17:00,23.2,20.4,30.16,NNE,13,7.0,13.0,89,-99.99,,,0.00,1-wire,2013-02-08 10:17:00,
2013-02-08 04:22:00,23.0,20.2,30.16,NNE,14,7.0,14.0,89,-99.99,,,0.00,1-wire,2013-02-08 10:22:00,
2013-02-08 04:27:00,23.1,20.2,30.17,NNE,14,5.0,8.0,88,-99.99,,,0.00,1-wire,2013-02-08 10:27:00,
2013-02-08 04:32:00,23.2,20.3,30.17,NNE,14,5.0,11.0,88,-99.99,,,0.00,1-wire,2013-02-08 10:32:00,
2013-02-08 04:37:00,23.3,20.4,30.18,North,8,4.0,6.0,88,-99.99,,,0.00,1-wire,2013-02-08 10:37:00,
2013-02-08 04:42:00,23.2,20.3,30.18,North,8,6.0,11.0,88,-99.99,,,0.00,1-wire,2013-02-08 10:42:00,
2013-02-08 04:47:00,23.4,20.5,30.19,North,8,2.0,8.0,88,-99.99,,,0.00,1-wire,2013-02-08 10:47:00,
2013-02-08 04:52:00,23.2,20.2,30.18,North,8,7.0,13.0,88,-99.99,,,0.00,1-wire,2013-02-08 10:52:00,
2013-02-08 04:57:00,23.3,20.3,30.19,North,8,3.0,6.0,88,-99.99,,,0.00,1-wire,2013-02-08 10:57:00,
2013-02-08 05:02:00,23.5,20.5,30.18,North,8,4.0,6.0,88,-99.99,,,0.00,1-wire,2013-02-08 11:02:00,
2013-02-08 05:07:00,23.5,20.5,30.19,North,9,2.0,6.0,88,-99.99,,,0.00,1-wire,2013-02-08 11:07:00,
2013-02-08 05:12:00,23.5,20.5,30.19,North,9,2.0,6.0,88,-99.99,,,0.00,1-wire,2013-02-08 11:12:00,
2013-02-08 05:17:00,23.4,20.3,30.20,North,9,6.0,11.0,88,-99.99,,,0.00,1-wire,2013-02-08 11:17:00,
2013-02-08 05:22:00,23.3,20.1,30.20,North,357,3.0,6.0,87,-99.99,,,0.00,1-wire,2013-02-08 11:22:00,
2013-02-08 05:27:00,23.5,20.3,30.20,North,357,4.0,8.0,87,-99.99,,,0.00,1-wire,2013-02-08 11:27:00,
2013-02-08 05:32:00,23.5,20.3,30.20,North,357,3.0,6.0,87,-99.99,,,0.00,1-wire,2013-02-08 11:32:00,
2013-02-08 05:37:00,23.4,20.3,30.20,North,352,4.0,9.0,87,-99.99,,,0.00,1-wire,2013-02-08 11:37:00,
2013-02-08 05:42:00,23.3,20.1,30.20,North,352,5.0,9.0,87,-99.99,,,0.00,1-wire,2013-02-08 11:42:00,
2013-02-08 05:48:00,23.3,20.1,30.20,North,352,4.0,8.0,87,-99.99,,,0.00,1-wire,2013-02-08 11:48:00,
2013-02-08 05:53:00,23.3,20.2,30.20,North,359,3.0,6.0,87,-99.99,,,0.00,1-wire,2013-02-08 11:53:00,
2013-02-08 05:58:00,23.2,20.1,30.20,North,359,5.0,11.0,88,-99.99,,,0.00,1-wire,2013-02-08 11:58:00,
2013-02-08 06:03:00,23.0,19.8,30.21,North,359,4.0,8.0,87,-99.99,,,0.00,1-wire,2013-02-08 12:03:00,
2013-02-08 06:08:00,23.0,19.6,30.21,North,4,5.0,9.0,87,-99.99,,,0.00,1-wire,2013-02-08 12:08:00,
2013-02-08 06:13:00,23.0,19.8,30.22,North,4,5.0,9.0,87,-99.99,,,0.00,1-wire,2013-02-08 12:13:00,
2013-02-08 06:18:00,23.1,19.9,30.22,North,4,5.0,11.0,87,-99.99,,,0.00,1-wire,2013-02-08 12:18:00,
2013-02-08 06:24:00,23.0,19.9,30.22,North,359,1.0,3.0,87,-99.99,,,0.00,1-wire,2013-02-08 12:24:00,
2013-02-08 06:30:00,23.0,19.8,30.22,North,359,3.0,6.0,87,-99.99,,,0.00,1-wire,2013-02-08 12:30:00,
2013-02-08 06:35:00,22.8,19.6,30.22,North,359,6.0,11.0,87,-99.99,,,0.00,1-wire,2013-02-08 12:35:00,
2013-02-08 06:41:00,23.1,19.9,30.22,North,357,4.0,6.0,87,-99.99,,,0.00,1-wire,2013-02-08 12:41:00,
2013-02-08 06:46:00,22.8,19.6,30.22,North,357,4.0,9.0,87,-99.99,,,0.00,1-wire,2013-02-08 12:46:00,
2013-02-08 06:51:00,22.9,19.6,30.23,North,357,1.0,3.0,87,-99.99,,,0.00,1-wire,2013-02-08 12:51:00,
2013-02-08 06:56:00,22.8,19.4,30.23,North,357,4.0,8.0,87,-99.99,,,0.00,1-wire,2013-02-08 12:56:00,
2013-02-08 07:02:00,22.8,19.3,30.24,North,357,3.0,6.0,86,-99.99,,,0.00,1-wire,2013-02-08 13:02:00,
2013-02-08 07:08:00,23.1,19.9,30.24,North,359,2.0,6.0,87,-99.99,,,0.00,1-wire,2013-02-08 13:08:00,
2013-02-08 07:14:00,23.0,19.7,30.25,North,359,2.0,6.0,87,-99.99,,,0.00,1-wire,2013-02-08 13:14:00,
2013-02-08 07:19:00,22.5,19.1,30.25,North,359,5.0,9.0,86,-99.99,,,0.00,1-wire,2013-02-08 13:19:00,
2013-02-08 07:24:00,22.6,19.2,30.26,North,1,4.0,6.0,86,-99.99,,,0.00,1-wire,2013-02-08 13:24:00,
2013-02-08 07:29:00,22.6,19.2,30.26,North,1,6.0,13.0,86,-99.99,,,0.00,1-wire,2013-02-08 13:29:00,
2013-02-08 07:34:00,22.5,19.1,30.27,North,1,3.0,8.0,87,-99.99,,,0.00,1-wire,2013-02-08 13:34:00,
2013-02-08 07:39:00,22.3,18.7,30.27,North,354,6.0,13.0,86,-99.99,,,0.00,1-wire,2013-02-08 13:39:00,
2013-02-08 07:44:00,22.4,18.9,30.27,North,354,3.0,8.0,86,-99.99,,,0.00,1-wire,2013-02-08 13:44:00,
2013-02-08 07:49:00,22.4,19.0,30.27,North,354,6.0,11.0,86,-99.99,,,0.00,1-wire,2013-02-08 13:49:00,
2013-02-08 07:54:00,22.2,18.7,30.27,North,352,5.0,9.0,86,-99.99,,,0.00,1-wire,2013-02-08 13:54:00,
2013-02-08 07:59:00,22.3,18.7,30.27,North,352,1.0,3.0,86,-99.99,,,0.00,1-wire,2013-02-08 13:59:00,
2013-02-08 08:04:00,22.0,18.3,30.27,North,352,4.0,6.0,86,-99.99,,,0.00,1-wire,2013-02-08 14:04:00,
2013-02-08 08:09:00,21.6,17.9,30.27,North,358,5.0,8.0,85,-99.99,,,0.00,1-wire,2013-02-08 14:09:00,
2013-02-08 08:14:00,21.8,18.1,30.28,North,358,2.0,6.0,85,-99.99,,,0.00,1-wire,2013-02-08 14:14:00,
2013-02-08 08:19:00,21.4,17.6,30.28,North,358,6.0,11.0,85,-99.99,,,0.00,1-wire,2013-02-08 14:19:00,
2013-02-08 08:24:00,21.4,17.6,30.29,NNW,348,4.0,10.0,85,-99.99,,,0.00,1-wire,2013-02-08 14:24:00,
2013-02-08 08:29:00,21.8,18.1,30.29,NNW,348,3.0,6.0,85,-99.99,,,0.00,1-wire,2013-02-08 14:29:00,
2013-02-08 08:34:00,21.6,17.8,30.29,NNW,348,3.0,6.0,85,-99.99,,,0.00,1-wire,2013-02-08 14:34:00,
2013-02-08 08:39:00,21.4,17.5,30.30,North,350,3.0,6.0,85,-99.99,,,0.00,1-wire,2013-02-08 14:39:00,
2013-02-08 08:44:00,21.3,17.4,30.30,North,350,5.0,9.0,85,-99.99,,,0.00,1-wire,2013-02-08 14:44:00,
2013-02-08 08:49:00,21.6,17.6,30.30,North,350,4.0,9.0,84,-99.99,,,0.00,1-wire,2013-02-08 14:49:00,
2013-02-08 08:54:00,21.5,17.5,30.30,NNW,347,4.0,9.0,84,-99.99,,,0.00,1-wire,2013-02-08 14:54:00,
2013-02-08 08:59:00,21.1,17.1,30.30,NNW,347,7.0,16.0,84,-99.99,,,0.00,1-wire,2013-02-08 14:59:00,
2013-02-08 09:04:00,21.5,17.4,30.30,NNW,347,3.0,6.0,84,-99.99,,,0.00,1-wire,2013-02-08 15:04:00,
2013-02-08 09:09:00,21.2,17.0,30.30,NNW,345,3.0,9.0,84,-99.99,,,0.00,1-wire,2013-02-08 15:09:00,
2013-02-08 09:14:00,21.6,17.4,30.31,NNW,345,4.0,6.0,83,-99.99,,,0.00,1-wire,2013-02-08 15:14:00,
2013-02-08 09:19:00,21.6,17.2,30.31,NNW,345,3.0,9.0,83,-99.99,,,0.00,1-wire,2013-02-08 15:19:00,
2013-02-08 09:24:00,21.6,17.3,30.31,North,350,6.0,10.0,83,-99.99,,,0.00,1-wire,2013-02-08 15:24:00,
2013-02-08 09:30:00,21.7,17.3,30.31,North,350,2.0,6.0,83,-99.99,,,0.00,1-wire,2013-02-08 15:30:00,
2013-02-08 09:35:00,21.8,17.4,30.31,North,350,4.0,8.0,83,-99.99,,,0.00,1-wire,2013-02-08 15:35:00,
2013-02-08 09:40:00,21.6,17.0,30.31,NNW,348,5.0,8.0,82,-99.99,,,0.00,1-wire,2013-02-08 15:40:00,
2013-02-08 09:45:00,21.5,16.9,30.31,NNW,348,3.0,6.0,82,-99.99,,,0.00,1-wire,2013-02-08 15:45:00,
2013-02-08 09:50:00,21.6,16.9,30.31,NNW,348,4.0,6.0,82,-99.99,,,0.00,1-wire,2013-02-08 15:50:00,
2013-02-08 09:56:00,22.0,17.0,30.31,North,350,6.0,11.0,81,-99.99,,,0.00,1-wire,2013-02-08 15:56:00,
2013-02-08 10:01:00,22.4,17.3,30.31,North,350,6.0,11.0,81,-99.99,,,0.00,1-wire,2013-02-08 16:01:00,
2013-02-08 10:06:00,21.5,16.5,30.31,North,351,7.0,11.0,80,-99.99,,,0.00,1-wire,2013-02-08 16:06:00,
2013-02-08 10:12:00,23.2,17.7,30.31,North,351,2.0,7.0,79,-99.99,,,0.00,1-wire,2013-02-08 16:12:00,
2013-02-08 10:18:00,22.6,17.1,30.32,North,351,5.0,8.0,79,-99.99,,,0.00,1-wire,2013-02-08 16:18:00,
2013-02-08 10:23:00,23.2,17.3,30.32,North,357,4.0,9.0,78,-99.99,,,0.00,1-wire,2013-02-08 16:23:00,
2013-02-08 10:28:00,23.1,17.1,30.33,North,357,4.0,8.0,77,-99.99,,,0.00,1-wire,2013-02-08 16:28:00,
2013-02-08 10:34:00,23.1,17.1,30.33,North,357,3.0,6.0,77,-99.99,,,0.00,1-wire,2013-02-08 16:34:00,
2013-02-08 10:39:00,22.9,17.0,30.33,North,359,5.0,14.0,78,-99.99,,,0.00,1-wire,2013-02-08 16:39:00,
2013-02-08 10:45:00,22.2,16.7,30.33,North,359,3.0,6.0,79,-99.99,,,0.00,1-wire,2013-02-08 16:45:00,
2013-02-08 10:50:00,22.8,17.4,30.33,North,359,4.0,8.0,80,-99.99,,,0.00,1-wire,2013-02-08 16:50:00,
2013-02-08 10:55:00,22.9,17.4,30.33,North,358,5.0,9.0,79,-99.99,,,0.00,1-wire,2013-02-08 16:55:00,
2013-02-08 11:00:00,22.3,17.3,30.33,North,358,4.0,9.0,81,-99.99,,,0.00,1-wire,2013-02-08 17:00:00,
2013-02-08 11:06:00,22.8,18.1,30.33,North,358,2.0,6.0,82,-99.99,,,0.00,1-wire,2013-02-08 17:06:00,
2013-02-08 11:11:00,23.6,18.4,30.33,North,358,2.0,3.0,80,-99.99,,,0.00,1-wire,2013-02-08 17:11:00,
2013-02-08 11:16:00,23.6,18.1,30.33,North,358,1.0,3.0,79,-99.99,,,0.00,1-wire,2013-02-08 17:16:00,
2013-02-08 11:21:00,23.7,18.3,30.33,North,8,1.0,3.0,80,-99.99,,,0.00,1-wire,2013-02-08 17:21:00,
2013-02-08 11:27:00,23.1,17.2,30.33,North,8,4.0,8.0,78,-99.99,,,0.00,1-wire,2013-02-08 17:27:00,
2013-02-08 11:33:00,22.9,17.3,30.33,North,8,5.0,10.0,79,-99.99,,,0.00,1-wire,2013-02-08 17:33:00,
2013-02-08 11:38:00,22.6,17.1,30.33,North,7,3.0,11.0,79,-99.99,,,0.00,1-wire,2013-02-08 17:38:00,
2013-02-08 11:43:00,23.4,17.8,30.33,North,7,2.0,6.0,79,-99.99,,,0.00,1-wire,2013-02-08 17:43:00,
2013-02-08 11:48:00,23.3,17.5,30.33,North,7,1.0,5.0,78,-99.99,,,0.00,1-wire,2013-02-08 17:48:00,
2013-02-08 11:54:00,22.7,17.0,30.33,North,7,4.0,6.0,78,-99.99,,,0.00,1-wire,2013-02-08 17:54:00,
2013-02-08 11:59:00,23.0,17.3,30.33,North,7,3.0,8.0,78,-99.99,,,0.00,1-wire,2013-02-08 17:59:00,
2013-02-08 12:04:00,23.1,17.4,30.33,North,7,1.0,3.0,78,-99.99,,,0.00,1-wire,2013-02-08 18:04:00,
2013-02-08 12:09:00,23.3,17.5,30.33,North,6,3.0,6.0,78,-99.99,,,0.00,1-wire,2013-02-08 18:09:00,
2013-02-08 12:14:00,23.1,17.2,30.33,North,6,3.0,6.0,78,-99.99,,,0.00,1-wire,2013-02-08 18:14:00,
2013-02-08 12:19:00,23.6,17.7,30.32,North,6,1.0,6.0,78,-99.99,,,0.00,1-wire,2013-02-08 18:19:00,
2013-02-08 12:25:00,22.9,16.9,30.33,North,0,2.0,6.0,77,-99.99,,,0.00,1-wire,2013-02-08 18:25:00,
2013-02-08 12:30:00,23.4,17.8,30.33,North,0,1.0,3.0,79,-99.99,,,0.00,1-wire,2013-02-08 18:30:00,
2013-02-08 12:35:00,22.8,16.7,30.33,North,0,1.0,6.0,77,-99.99,,,0.00,1-wire,2013-02-08 18:35:00,
2013-02-08 12:40:00,23.3,17.7,30.33,North,357,2.0,6.0,79,-99.99,,,0.00,1-wire,2013-02-08 18:40:00,
2013-02-08 12:46:00,23.5,17.3,30.33,North,357,2.0,6.0,77,-99.99,,,0.00,1-wire,2013-02-08 18:46:00,
2013-02-08 12:51:00,23.2,17.5,30.33,North,0,4.0,11.0,79,-99.99,,,0.00,1-wire,2013-02-08 18:51:00,
2013-02-08 12:56:00,23.3,17.4,30.33,North,0,3.0,6.0,78,-99.99,,,0.00,1-wire,2013-02-08 18:56:00,
2013-02-08 13:02:00,23.2,17.4,30.33,North,0,2.0,6.0,78,-99.99,,,0.00,1-wire,2013-02-08 19:02:00,
2013-02-08 13:07:00,23.2,17.4,30.33,NNE,17,4.0,6.0,78,-99.99,,,0.00,1-wire,2013-02-08 19:07:00,
2013-02-08 13:12:00,23.5,18.0,30.32,NNE,17,3.0,6.0,79,-99.99,,,0.00,1-wire,2013-02-08 19:12:00,
2013-02-08 13:17:00,23.7,17.8,30.32,NNE,17,3.0,6.0,78,-99.99,,,0.00,1-wire,2013-02-08 19:17:00,
2013-02-08 13:23:00,23.5,17.7,30.32,NNE,25,2.0,6.0,78,-99.99,,,0.00,1-wire,2013-02-08 19:23:00,
2013-02-08 13:29:00,23.1,17.2,30.32,NNE,25,3.0,6.0,78,-99.99,,,0.00,1-wire,2013-02-08 19:29:00,
2013-02-08 13:35:00,23.2,17.3,30.32,NNE,25,5.0,9.0,78,-99.99,,,0.00,1-wire,2013-02-08 19:35:00,
2013-02-08 13:40:00,22.9,16.9,30.33,NE,37,3.0,8.0,78,-99.99,,,0.00,1-wire,2013-02-08 19:40:00,
2013-02-08 13:45:00,23.2,17.2,30.32,NE,37,4.0,8.0,77,-99.99,,,0.00,1-wire,2013-02-08 19:45:00,
2013-02-08 13:50:00,23.5,17.3,30.33,NE,37,1.0,6.0,77,-99.99,,,0.00,1-wire,2013-02-08 19:50:00,
2013-02-08 13:55:00,23.4,17.1,30.33,NNE,25,1.0,3.0,76,-99.99,,,0.00,1-wire,2013-02-08 19:55:00,
2013-02-08 14:00:00,23.7,17.3,30.33,NNE,25,1.0,3.0,76,-99.99,,,0.00,1-wire,2013-02-08 20:00:00,
2013-02-08 14:05:00,23.3,16.9,30.33,NNE,25,2.0,3.0,76,-99.99,,,0.00,1-wire,2013-02-08 20:05:00,
2013-02-08 14:10:00,23.4,17.1,30.33,NNE,12,1.0,3.0,76,-99.99,,,0.00,1-wire,2013-02-08 20:10:00,
2013-02-08 14:15:00,23.6,17.3,30.33,NNE,12,4.0,8.0,77,-99.99,,,0.00,1-wire,2013-02-08 20:15:00,
2013-02-08 14:21:00,23.5,17.1,30.33,North,10,4.0,9.0,76,-99.99,,,0.00,1-wire,2013-02-08 20:21:00,
2013-02-08 14:26:00,23.9,17.4,30.33,North,10,0.0,3.0,76,-99.99,,,0.00,1-wire,2013-02-08 20:26:00,
2013-02-08 14:31:00,23.7,17.2,30.33,North,10,3.0,6.0,76,-99.99,,,0.00,1-wire,2013-02-08 20:31:00,
2013-02-08 14:36:00,24.0,17.3,30.32,North,11,1.0,3.0,75,-99.99,,,0.00,1-wire,2013-02-08 20:36:00,
2013-02-08 14:41:00,23.8,17.2,30.33,North,11,3.0,6.0,76,-99.99,,,0.00,1-wire,2013-02-08 20:41:00,
2013-02-08 14:46:00,23.9,17.2,30.33,North,11,2.0,6.0,75,-99.99,,,0.00,1-wire,2013-02-08 20:46:00,
2013-02-08 14:51:00,23.9,17.2,30.32,North,9,4.0,6.0,75,-99.99,,,0.00,1-wire,2013-02-08 20:51:00,
2013-02-08 14:56:00,24.0,17.4,30.32,North,9,3.0,11.0,76,-99.99,,,0.00,1-wire,2013-02-08 20:56:00,
2013-02-08 15:01:00,24.3,17.9,30.32,North,9,0.0,3.0,76,-99.99,,,0.00,1-wire,2013-02-08 21:01:00,
2013-02-08 15:06:00,23.8,17.2,30.32,NE,34,4.0,6.0,75,-99.99,,,0.00,1-wire,2013-02-08 21:06:00,
2013-02-08 15:11:00,24.2,17.4,30.32,NE,34,2.0,6.0,75,-99.99,,,0.00,1-wire,2013-02-08 21:11:00,
2013-02-08 15:17:00,24.6,17.6,30.33,NE,34,0.0,3.0,74,-99.99,,,0.00,1-wire,2013-02-08 21:17:00,
2013-02-08 15:22:00,25.1,18.2,30.33,NE,35,0.0,3.0,75,-99.99,,,0.00,1-wire,2013-02-08 21:22:00,
2013-02-08 15:27:00,25.0,17.9,30.33,NE,35,2.0,6.0,74,-99.99,,,0.00,1-wire,2013-02-08 21:27:00,
2013-02-08 15:32:00,24.7,17.0,30.33,NE,35,0.0,0.0,72,-99.99,,,0.00,1-wire,2013-02-08 21:32:00,
2013-02-08 15:38:00,25.4,18.2,30.33,NE,34,0.0,3.0,74,-99.99,,,0.00,1-wire,2013-02-08 21:38:00,
2013-02-08 15:43:00,25.3,18.6,30.32,NE,34,0.0,3.0,75,-99.99,,,0.00,1-wire,2013-02-08 21:43:00,
2013-02-08 15:48:00,24.8,17.7,30.31,NE,34,3.0,6.0,74,-99.99,,,0.00,1-wire,2013-02-08 21:48:00,
2013-02-08 15:54:00,25.4,18.3,30.32,NE,52,1.0,3.0,74,-99.99,,,0.00,1-wire,2013-02-08 21:54:00,
2013-02-08 15:59:00,25.3,17.8,30.32,NE,52,0.0,3.0,73,-99.99,,,0.00,1-wire,2013-02-08 21:59:00,
2013-02-08 16:05:00,24.6,17.6,30.32,NE,52,3.0,6.0,74,-99.99,,,0.00,1-wire,2013-02-08 22:05:00,
2013-02-08 16:11:00,25.4,18.4,30.32,NNE,31,0.0,0.0,75,-99.99,,,0.00,1-wire,2013-02-08 22:11:00,
2013-02-08 16:16:00,25.1,18.1,30.32,NNE,31,0.0,3.0,74,-99.99,,,0.00,1-wire,2013-02-08 22:16:00,
2013-02-08 16:22:00,25.0,18.5,30.33,ENE,58,0.0,0.0,76,-99.99,,,0.00,1-wire,2013-02-08 22:22:00,
2013-02-08 16:27:00,24.6,17.7,30.33,ENE,58,0.0,0.0,75,-99.99,,,0.00,1-wire,2013-02-08 22:27:00,
2013-02-08 16:32:00,24.5,17.5,30.32,ENE,58,0.0,0.0,74,-99.99,,,0.00,1-wire,2013-02-08 22:32:00,
2013-02-08 16:37:00,24.7,18.2,30.33,ENE,67,1.0,3.0,76,-99.99,,,0.00,1-wire,2013-02-08 22:37:00,
2013-02-08 16:42:00,24.6,17.8,30.33,ENE,67,0.0,0.0,75,-99.99,,,0.00,1-wire,2013-02-08 22:42:00,
2013-02-08 16:47:00,24.6,18.0,30.33,ENE,67,0.0,0.0,76,-99.99,,,0.00,1-wire,2013-02-08 22:47:00,
2013-02-08 16:52:00,24.8,18.3,30.33,ENE,75,0.0,0.0,76,-99.99,,,0.00,1-wire,2013-02-08 22:52:00,
2013-02-08 16:57:00,24.5,18.0,30.33,ENE,75,0.0,0.0,76,-99.99,,,0.00,1-wire,2013-02-08 22:57:00,
2013-02-08 17:02:00,24.4,18.5,30.33,ENE,75,0.0,0.0,78,-99.99,,,0.00,1-wire,2013-02-08 23:02:00,
2013-02-08 17:08:00,24.0,18.1,30.33,ENE,74,0.0,0.0,78,-99.99,,,0.00,1-wire,2013-02-08 23:08:00,
2013-02-08 17:13:00,23.7,18.0,30.33,ENE,74,0.0,0.0,78,-99.99,,,0.00,1-wire,2013-02-08 23:13:00,
2013-02-08 17:18:00,23.4,18.1,30.33,ENE,74,0.0,0.0,80,-99.99,,,0.00,1-wire,2013-02-08 23:18:00,
2013-02-08 17:23:00,22.9,18.0,30.33,East,90,0.0,0.0,81,-99.99,,,0.00,1-wire,2013-02-08 23:23:00,
2013-02-08 17:28:00,23.2,18.1,30.33,East,90,0.0,0.0,80,-99.99,,,0.00,1-wire,2013-02-08 23:28:00,
2013-02-08 17:33:00,22.3,17.8,30.33,East,90,0.0,0.0,83,-99.99,,,0.00,1-wire,2013-02-08 23:33:00,
2013-02-08 17:38:00,22.7,18.2,30.33,East,84,0.0,0.0,83,-99.99,,,0.00,1-wire,2013-02-08 23:38:00,
2013-02-08 17:44:00,22.4,18.0,30.33,East,84,0.0,0.0,83,-99.99,,,0.00,1-wire,2013-02-08 23:44:00,
2013-02-08 17:49:00,21.9,17.6,30.33,East,84,0.0,0.0,83,-99.99,,,0.00,1-wire,2013-02-08 23:49:00,
2013-02-08 17:54:00,21.6,17.7,30.33,East,79,0.0,0.0,85,-99.99,,,0.00,1-wire,2013-02-08 23:54:00,
2013-02-08 17:59:00,21.4,17.9,30.33,East,79,0.0,0.0,86,-99.99,,,0.00,1-wire,2013-02-08 23:59:00,
2013-02-08 18:04:00,21.1,17.5,30.33,East,79,0.0,0.0,86,-99.99,,,0.00,1-wire,2013-02-09 00:04:00,
2013-02-08 18:09:00,21.0,17.5,30.33,ESE,104,0.0,0.0,86,-99.99,,,0.00,1-wire,2013-02-09 00:09:00,
2013-02-08 18:14:00,20.7,17.4,30.33,ESE,104,0.0,0.0,87,-99.99,,,0.00,1-wire,2013-02-09 00:14:00,
2013-02-08 18:20:00,20.6,17.4,30.33,ESE,104,0.0,0.0,87,-99.99,,,0.00,1-wire,2013-02-09 00:20:00,
2013-02-08 18:25:00,20.4,17.2,30.34,ESE,108,0.0,0.0,87,-99.99,,,0.00,1-wire,2013-02-09 00:25:00,
2013-02-08 18:30:00,20.3,17.2,30.33,ESE,108,0.0,0.0,88,-99.99,,,0.00,1-wire,2013-02-09 00:30:00,
2013-02-08 18:35:00,20.2,17.1,30.33,ESE,108,0.0,0.0,88,-99.99,,,0.00,1-wire,2013-02-09 00:35:00,
2013-02-08 18:40:00,20.0,17.0,30.33,ESE,105,0.0,0.0,88,-99.99,,,0.00,1-wire,2013-02-09 00:40:00,
2013-02-08 18:46:00,19.4,16.7,30.33,ESE,105,0.0,0.0,89,-99.99,,,0.00,1-wire,2013-02-09 00:46:00,
2013-02-08 18:51:00,19.1,16.7,30.33,ESE,109,0.0,0.0,90,-99.99,,,0.00,1-wire,2013-02-09 00:51:00,
2013-02-08 18:57:00,19.3,16.9,30.34,ESE,109,0.0,0.0,90,-99.99,,,0.00,1-wire,2013-02-09 00:57:00,
2013-02-08 19:02:00,18.8,16.5,30.34,ESE,109,0.0,0.0,90,-99.99,,,0.00,1-wire,2013-02-09 01:02:00,
2013-02-08 19:07:00,18.7,16.5,30.34,ESE,106,0.0,0.0,91,-99.99,,,0.00,1-wire,2013-02-09 01:07:00,
2013-02-08 19:12:00,18.6,16.2,30.34,ESE,106,0.0,0.0,90,-99.99,,,0.00,1-wire,2013-02-09 01:12:00,
2013-02-08 19:17:00,18.3,16.0,30.34,ESE,106,0.0,0.0,91,-99.99,,,0.00,1-wire,2013-02-09 01:17:00,
2013-02-08 19:23:00,18.4,16.3,30.34,NNE,26,0.0,0.0,91,-99.99,,,0.00,1-wire,2013-02-09 01:23:00,
2013-02-08 19:28:00,18.1,16.0,30.33,NNE,26,0.0,0.0,91,-99.99,,,0.00,1-wire,2013-02-09 01:28:00,
2013-02-08 19:34:00,17.9,15.8,30.35,NNE,26,0.0,0.0,91,-99.99,,,0.00,1-wire,2013-02-09 01:34:00,
2013-02-08 19:39:00,17.6,15.6,30.34,NNE,30,0.0,0.0,92,-99.99,,,0.00,1-wire,2013-02-09 01:39:00,
2013-02-08 19:45:00,17.6,15.6,30.34,NNE,30,0.0,0.0,92,-99.99,,,0.00,1-wire,2013-02-09 01:45:00,
2013-02-08 19:50:00,17.0,15.3,30.34,NNE,30,0.0,0.0,93,-99.99,,,0.00,1-wire,2013-02-09 01:50:00,
2013-02-08 19:55:00,16.8,15.3,30.34,NNE,29,0.0,0.0,94,-99.99,,,0.00,1-wire,2013-02-09 01:55:00,
2013-02-08 20:00:00,16.7,15.0,30.35,NNE,29,0.0,0.0,93,-99.99,,,0.00,1-wire,2013-02-09 02:00:00,
2013-02-08 20:06:00,16.6,15.2,30.35,NNE,29,0.0,0.0,94,-99.99,,,0.00,1-wire,2013-02-09 02:06:00,
2013-02-08 20:12:00,16.6,15.1,30.35,NNE,29,0.0,0.0,93,-99.99,,,0.00,1-wire,2013-02-09 02:12:00,
2013-02-08 20:17:00,16.8,15.0,30.35,NNE,29,0.0,0.0,93,-99.99,,,0.00,1-wire,2013-02-09 02:17:00,
2013-02-08 20:22:00,16.2,14.7,30.35,NNE,23,0.0,0.0,94,-99.99,,,0.00,1-wire,2013-02-09 02:22:00,
2013-02-08 20:27:00,16.1,14.5,30.35,NNE,23,0.0,0.0,93,-99.99,,,0.00,1-wire,2013-02-09 02:27:00,
2013-02-08 20:32:00,16.4,14.7,30.35,NNE,23,0.0,0.0,93,-99.99,,,0.00,1-wire,2013-02-09 02:32:00,
2013-02-08 20:38:00,16.1,14.5,30.35,NNE,27,0.0,0.0,93,-99.99,,,0.00,1-wire,2013-02-09 02:38:00,
2013-02-08 20:43:00,16.1,14.4,30.35,NNE,27,0.0,0.0,93,-99.99,,,0.00,1-wire,2013-02-09 02:43:00,
2013-02-08 20:48:00,15.4,14.0,30.35,NNE,27,0.0,0.0,94,-99.99,,,0.00,1-wire,2013-02-09 02:48:00,
2013-02-08 20:53:00,15.6,14.2,30.35,NNE,24,0.0,0.0,94,-99.99,,,0.00,1-wire,2013-02-09 02:53:00,
2013-02-08 20:58:00,15.6,14.0,30.35,NNE,24,0.0,0.0,93,-99.99,,,0.00,1-wire,2013-02-09 02:58:00,
2013-02-08 21:03:00,15.0,13.8,30.35,NNE,24,0.0,0.0,95,-99.99,,,0.00,1-wire,2013-02-09 03:03:00,
2013-02-08 21:08:00,15.5,14.0,30.35,NNE,23,0.0,0.0,94,-99.99,,,0.00,1-wire,2013-02-09 03:08:00,
2013-02-08 21:13:00,15.1,13.6,30.35,NNE,23,0.0,0.0,94,-99.99,,,0.00,1-wire,2013-02-09 03:13:00,
2013-02-08 21:18:00,14.9,13.5,30.35,NNE,23,0.0,0.0,94,-99.99,,,0.00,1-wire,2013-02-09 03:18:00,
2013-02-08 21:23:00,15.0,13.6,30.35,NNE,24,0.0,0.0,94,-99.99,,,0.00,1-wire,2013-02-09 03:23:00,
2013-02-08 21:28:00,15.0,13.6,30.35,NNE,24,0.0,0.0,94,-99.99,,,0.00,1-wire,2013-02-09 03:28:00,
2013-02-08 21:33:00,15.0,13.5,30.35,NNE,24,0.0,0.0,94,-99.99,,,0.00,1-wire,2013-02-09 03:33:00,
2013-02-08 21:38:00,14.4,13.3,30.35,NNE,20,0.0,0.0,95,-99.99,,,0.00,1-wire,2013-02-09 03:38:00,
2013-02-08 21:44:00,14.7,13.4,30.35,NNE,20,0.0,0.0,94,-99.99,,,0.00,1-wire,2013-02-09 03:44:00,
2013-02-08 21:49:00,14.6,13.1,30.35,NNE,20,0.0,0.0,94,-99.99,,,0.00,1-wire,2013-02-09 03:49:00,
2013-02-08 21:54:00,14.3,12.9,30.35,NNE,29,0.0,0.0,94,-99.99,,,0.00,1-wire,2013-02-09 03:54:00,
2013-02-08 22:00:00,14.0,12.9,30.35,NNE,29,0.0,0.0,95,-99.99,,,0.00,1-wire,2013-02-09 04:00:00,
2013-02-08 22:05:00,14.1,12.8,30.35,NNE,29,0.0,0.0,94,-99.99,,,0.00,1-wire,2013-02-09 04:05:00,
2013-02-08 22:10:00,14.1,12.7,30.34,NNE,27,0.0,0.0,94,-99.99,,,0.00,1-wire,2013-02-09 04:10:00,
2013-02-08 22:16:00,14.0,12.5,30.35,NNE,27,0.0,0.0,94,-99.99,,,0.00,1-wire,2013-02-09 04:16:00,
2013-02-08 22:21:00,13.7,12.4,30.35,NNE,23,0.0,0.0,94,-99.99,,,0.00,1-wire,2013-02-09 04:21:00,
2013-02-08 22:27:00,13.3,12.2,30.35,NNE,23,0.0,0.0,95,-99.99,,,0.00,1-wire,2013-02-09 04:27:00,
2013-02-08 22:32:00,13.6,12.5,30.35,NNE,23,0.0,0.0,95,-99.99,,,0.00,1-wire,2013-02-09 04:32:00,
2013-02-08 22:38:00,13.7,12.7,30.35,NNE,24,0.0,0.0,96,-99.99,,,0.00,1-wire,2013-02-09 04:38:00,
2013-02-08 22:43:00,14.0,12.9,30.35,NNE,24,0.0,0.0,96,-99.99,,,0.00,1-wire,2013-02-09 04:43:00,
2013-02-08 22:48:00,13.9,12.8,30.35,NNE,24,0.0,0.0,95,-99.99,,,0.00,1-wire,2013-02-09 04:48:00,
2013-02-08 22:53:00,13.9,12.8,30.35,NNE,19,0.0,0.0,95,-99.99,,,0.00,1-wire,2013-02-09 04:53:00,
2013-02-08 22:58:00,13.9,12.9,30.35,NNE,19,0.0,0.0,96,-99.99,,,0.00,1-wire,2013-02-09 04:58:00,
2013-02-08 23:00:00,14.0,13.0,30.34,NNE,19,0.0,0.0,96,-99.99,,,0.00,1-wire,2013-02-09 05:00:00,
2013-02-08 23:01:00,13.9,12.9,30.34,NNE,19,0.0,0.0,95,-99.99,,,0.00,1-wire,2013-02-09 05:01:00,
2013-02-08 23:02:00,14.0,12.9,30.34,NNE,19,0.0,0.0,95,-99.99,,,0.00,1-wire,2013-02-09 05:02:00,
2013-02-08 23:03:00,14.1,12.9,30.34,NNE,19,0.0,0.0,95,-99.99,,,0.00,1-wire,2013-02-09 05:03:00,
2013-02-08 23:08:00,13.7,12.4,30.34,NNE,25,0.0,0.0,94,-99.99,,,0.00,1-wire,2013-02-09 05:08:00,
2013-02-08 23:13:00,13.8,12.5,30.33,NNE,25,0.0,0.0,94,-99.99,,,0.00,1-wire,2013-02-09 05:13:00,
2013-02-08 23:18:00,13.8,12.5,30.33,NNE,25,0.0,0.0,95,-99.99,,,0.00,1-wire,2013-02-09 05:18:00,
2013-02-08 23:23:00,13.9,12.6,30.33,NNE,27,0.0,0.0,95,-99.99,,,0.00,1-wire,2013-02-09 05:23:00,
2013-02-08 23:28:00,13.7,12.5,30.34,NNE,27,0.0,0.0,95,-99.99,,,0.00,1-wire,2013-02-09 05:28:00,
2013-02-08 23:33:00,13.8,12.7,30.34,NNE,27,0.0,0.0,96,-99.99,,,0.00,1-wire,2013-02-09 05:33:00,
2013-02-08 23:39:00,13.6,12.3,30.34,NNE,23,0.0,0.0,95,-99.99,,,0.00,1-wire,2013-02-09 05:39:00,
2013-02-08 23:44:00,13.7,12.6,30.34,NNE,23,0.0,0.0,95,-99.99,,,0.00,1-wire,2013-02-09 05:44:00,
2013-02-08 23:49:00,13.6,12.5,30.35,NNE,23,0.0,0.0,95,-99.99,,,0.00,1-wire,2013-02-09 05:49:00,
2013-02-08 23:54:00,13.5,12.4,30.35,NNE,12,0.0,0.0,95,-99.99,,,0.00,1-wire,2013-02-09 05:54:00,
2013-02-08 23:59:00,13.6,12.4,30.35,NNE,12,0.0,0.0,95,-99.99,,,0.00,1-wire,2013-02-09 05:59:00,